Time;durP1;ratioP1;P1;durP2;ratioP2;P2;SDS_P1;SDS_P2;PMS_P1;PMS_P2;Temp;Humidity;BMP_temperature;BMP_pressure;BME280_temperature;BME280_humidity;BME280_pressure;Samples;Min_cycle;Max_cycle;Signal;HPM_P1;HPM_P2
2022/02/14 00:02:21;;;;;;;6.05;3.97;;;5.80;99.90;;;;;;5109143;28;20024;-53
2022/02/14 00:04:46;;;;;;;6.07;4.03;;;5.80;99.90;;;;;;5111443;28;20027;-52
2022/02/14 00:07:12;;;;;;;6.20;4.05;;;5.80;99.90;;;;;;5090742;28;20031;-52
2022/02/14 00:09:37;;;;;;;8.70;4.22;;;5.80;99.90;;;;;;5090655;28;20107;-53
2022/02/14 00:12:03;;;;;;;6.47;4.22;;;5.70;99.90;;;;;;5089950;28;20035;-53
2022/02/14 00:14:29;;;;;;;8.80;4.43;;;5.80;99.90;;;;;;5090665;28;20058;-53
2022/02/14 00:16:55;;;;;;;8.43;4.72;;;5.80;99.90;;;;;;5108097;28;20028;-51
2022/02/14 00:19:21;;;;;;;7.60;4.03;;;5.70;99.90;;;;;;5110746;28;20020;-52
2022/02/14 00:21:47;;;;;;;6.00;4.22;;;5.70;99.90;;;;;;5108175;28;20123;-53
2022/02/14 00:24:14;;;;;;;8.57;4.47;;;5.70;99.90;;;;;;5090594;28;20110;-54
2022/02/14 00:26:40;;;;;;;5.72;4.28;;;5.60;99.90;;;;;;5096001;28;20046;-54
2022/02/14 00:29:05;;;;;;;5.05;4.18;;;5.60;99.90;;;;;;5092403;28;20027;-55
2022/02/14 00:31:31;;;;;;;7.68;4.43;;;5.60;99.90;;;;;;5097334;28;20092;-53
2022/02/14 00:33:57;;;;;;;7.93;4.35;;;5.60;99.90;;;;;;5091085;28;20036;-52
2022/02/14 00:36:23;;;;;;;8.05;4.72;;;5.50;99.90;;;;;;5108125;28;20089;-55
2022/02/14 00:38:49;;;;;;;6.32;3.95;;;5.60;99.90;;;;;;5091509;28;20110;-53
2022/02/14 00:41:15;;;;;;;8.30;4.43;;;5.50;99.90;;;;;;5091294;28;20120;-55
2022/02/14 00:43:40;;;;;;;8.32;4.50;;;5.50;99.90;;;;;;5100346;28;20475;-55
2022/02/14 00:46:06;;;;;;;5.07;3.58;;;5.50;99.90;;;;;;5090087;28;20115;-53
2022/02/14 00:48:31;;;;;;;6.13;4.25;;;5.40;99.90;;;;;;5090270;28;20125;-51
2022/02/14 00:50:57;;;;;;;7.93;4.35;;;5.40;99.90;;;;;;5103975;28;20059;-52
2022/02/14 00:53:23;;;;;;;6.47;3.97;;;5.40;99.90;;;;;;5108526;28;20024;-55
2022/02/14 00:55:49;;;;;;;6.38;4.53;;;5.40;99.90;;;;;;5086764;28;20479;-52
2022/02/14 00:58:15;;;;;;;7.80;3.63;;;5.40;99.90;;;;;;5089806;28;20169;-52
2022/02/14 01:00:41;;;;;;;7.75;4.13;;;5.40;99.90;;;;;;5075575;28;20516;-52
2022/02/14 01:03:06;;;;;;;6.55;3.50;;;5.30;99.90;;;;;;5107978;28;20031;-52
2022/02/14 01:05:32;;;;;;;5.30;3.65;;;5.30;99.90;;;;;;5110194;28;20114;-55
2022/02/14 01:07:59;;;;;;;9.32;4.00;;;5.30;99.90;;;;;;5090295;28;20502;-53
2022/02/14 01:10:25;;;;;;;8.32;4.53;;;5.30;99.90;;;;;;5105063;28;20556;-53
2022/02/14 01:12:50;;;;;;;5.47;3.60;;;5.30;99.90;;;;;;5094074;28;20031;-52
2022/02/14 01:15:16;;;;;;;8.35;4.57;;;5.40;99.90;;;;;;5109774;28;20479;-52
2022/02/14 01:17:42;;;;;;;8.48;3.97;;;5.40;99.90;;;;;;5110329;28;20027;-53
2022/02/14 01:20:11;;;;;;;6.35;3.53;;;5.40;99.90;;;;;;5099062;28;20089;-52
2022/02/14 01:22:37;;;;;;;7.13;3.55;;;5.30;99.90;;;;;;5107959;28;20038;-55
2022/02/14 01:25:04;;;;;;;7.00;3.83;;;5.30;99.90;;;;;;5107597;28;20035;-55
2022/02/14 01:27:30;;;;;;;7.85;3.97;;;5.30;99.90;;;;;;5093154;28;20709;-53
2022/02/14 01:29:56;;;;;;;7.72;3.88;;;5.30;99.90;;;;;;5090010;28;20081;-55
2022/02/14 01:32:23;;;;;;;8.15;4.30;;;5.40;99.90;;;;;;5089570;28;20028;-52
2022/02/14 01:34:53;;;;;;;6.00;3.50;;;5.30;99.90;;;;;;5094138;28;20020;-55
2022/02/14 01:37:19;;;;;;;6.50;3.70;;;5.40;99.90;;;;;;5105184;28;20043;-54
2022/02/14 01:39:45;;;;;;;4.10;3.00;;;5.40;99.90;;;;;;5089649;28;20031;-52
2022/02/14 01:42:11;;;;;;;4.80;3.30;;;5.40;99.90;;;;;;5088886;28;20028;-55
2022/02/14 01:44:46;;;;;;;5.93;3.63;;;5.40;99.90;;;;;;5089369;28;20030;-54
2022/02/14 01:47:18;;;;;;;9.82;4.35;;;5.40;99.90;;;;;;5089637;28;20031;-53
2022/02/14 01:49:45;;;;;;;6.35;3.83;;;5.30;99.90;;;;;;5101378;28;20080;-53
2022/02/14 01:52:11;;;;;;;8.60;3.70;;;5.30;99.90;;;;;;5109593;28;20180;-53
2022/02/14 01:54:40;;;;;;;7.38;3.75;;;5.30;99.90;;;;;;5109135;28;20195;-51
2022/02/14 01:57:08;;;;;;;6.43;3.90;;;5.30;99.90;;;;;;5109320;28;20493;-52
2022/02/14 01:59:34;;;;;;;4.65;3.38;;;5.20;99.90;;;;;;5104286;28;20578;-51
2022/02/14 02:02:05;;;;;;;8.88;4.10;;;5.20;99.90;;;;;;5090646;28;20031;-54
2022/02/14 02:04:31;;;;;;;4.00;3.08;;;5.20;99.90;;;;;;5107956;28;20028;-54
2022/02/14 02:06:57;;;;;;;5.78;3.70;;;5.20;99.90;;;;;;5108000;28;20039;-55
2022/02/14 02:09:24;;;;;;;5.43;4.30;;;5.10;99.90;;;;;;5109524;28;20138;-52
2022/02/14 02:14:34;;;;;;;3.83;3.10;;;5.20;99.90;;;;;;5110796;28;20085;-55
2022/02/14 02:17:00;;;;;;;6.32;3.70;;;5.20;99.90;;;;;;5101093;28;20437;-52
2022/02/14 02:19:26;;;;;;;4.85;3.28;;;5.20;99.90;;;;;;5092979;28;20058;-53
2022/02/14 02:21:52;;;;;;;9.05;3.83;;;5.20;99.90;;;;;;5093940;28;20040;-54
2022/02/14 02:24:20;;;;;;;5.75;3.42;;;5.30;99.90;;;;;;5108321;28;20024;-52
2022/02/14 02:26:55;;;;;;;3.80;3.13;;;5.30;99.90;;;;;;5097920;28;20028;-52
2022/02/14 02:29:21;;;;;;;6.53;3.75;;;5.20;99.90;;;;;;5113064;28;20032;-52
2022/02/14 02:31:46;;;;;;;7.55;3.38;;;5.30;99.90;;;;;;5104538;28;20043;-53
2022/02/14 02:34:12;;;;;;;6.40;3.25;;;5.30;99.90;;;;;;5093718;28;20024;-53
2022/02/14 02:36:48;;;;;;;6.57;3.70;;;5.30;99.90;;;;;;5100192;28;20038;-52
2022/02/14 02:39:14;;;;;;;5.47;4.05;;;5.30;99.90;;;;;;5113105;28;20106;-52
2022/02/14 02:41:40;;;;;;;5.03;3.70;;;5.30;99.90;;;;;;5110764;28;20149;-53
2022/02/14 02:44:06;;;;;;;5.32;3.25;;;5.30;99.90;;;;;;5104273;28;20031;-53
2022/02/14 02:46:31;;;;;;;8.13;3.45;;;5.30;99.90;;;;;;5111760;28;20039;-52
2022/02/14 02:49:18;;;;;;;8.55;3.60;;;5.30;99.90;;;;;;5094634;28;20483;-52
2022/02/14 02:51:47;;;;;;;5.35;3.22;;;5.30;99.90;;;;;;5111852;28;20038;-52
2022/02/14 02:54:13;;;;;;;6.95;4.00;;;5.30;99.90;;;;;;5112721;28;20448;-51
2022/02/14 02:56:42;;;;;;;5.75;3.65;;;5.40;99.90;;;;;;5110662;28;20031;-53
2022/02/14 02:59:08;;;;;;;4.30;3.17;;;5.30;99.90;;;;;;5111120;28;20027;-52
2022/02/14 03:01:34;;;;;;;7.22;3.28;;;5.30;99.90;;;;;;5112537;28;20471;-52
2022/02/14 03:04:05;;;;;;;4.72;3.70;;;5.30;99.90;;;;;;5080913;28;20032;-51
2022/02/14 03:06:31;;;;;;;4.70;2.97;;;5.30;99.90;;;;;;5092299;28;20515;-52
2022/02/14 03:08:57;;;;;;;6.18;3.58;;;5.30;99.90;;;;;;5092419;28;20549;-52
2022/02/14 03:11:23;;;;;;;3.53;2.85;;;5.20;99.90;;;;;;5092216;28;20020;-53
2022/02/14 03:13:49;;;;;;;5.65;3.58;;;5.30;99.90;;;;;;5093818;28;20432;-53
2022/02/14 03:16:15;;;;;;;9.82;3.50;;;5.30;99.90;;;;;;5093052;28;20116;-54
2022/02/14 03:18:42;;;;;;;4.22;3.17;;;5.30;99.90;;;;;;5092063;28;20036;-55
2022/02/14 03:21:09;;;;;;;6.05;3.05;;;5.30;99.90;;;;;;5091742;28;20452;-52
2022/02/14 03:23:35;;;;;;;3.63;3.17;;;5.30;99.90;;;;;;5091780;28;20051;-55
2022/02/14 03:26:00;;;;;;;4.25;3.08;;;5.20;99.90;;;;;;5106984;28;20050;-52
2022/02/14 03:28:26;;;;;;;5.65;3.15;;;5.30;99.90;;;;;;5091807;28;20028;-51
2022/02/14 03:30:53;;;;;;;3.75;3.10;;;5.20;99.90;;;;;;5091731;28;20051;-52
2022/02/14 03:33:19;;;;;;;4.80;2.58;;;5.20;99.90;;;;;;5091072;28;20101;-54
2022/02/14 03:35:45;;;;;;;4.85;3.58;;;5.20;99.90;;;;;;5074328;28;20463;-51
2022/02/14 03:38:11;;;;;;;4.50;3.03;;;5.30;99.90;;;;;;5096913;28;20074;-53
2022/02/14 03:40:37;;;;;;;5.22;3.13;;;5.20;99.90;;;;;;5096859;28;20108;-52
2022/02/14 03:43:04;;;;;;;5.20;2.80;;;5.30;99.90;;;;;;5090919;28;20028;-55
2022/02/14 03:45:31;;;;;;;3.97;3.22;;;5.30;99.90;;;;;;5091090;28;20024;-52
2022/02/14 03:47:57;;;;;;;4.20;2.80;;;5.40;99.90;;;;;;5091094;28;20059;-55
2022/02/14 03:50:23;;;;;;;8.20;3.53;;;5.30;99.90;;;;;;5101959;28;20036;-51
2022/02/14 03:52:49;;;;;;;3.55;3.22;;;5.40;99.90;;;;;;5107393;28;20031;-54
2022/02/14 03:55:15;;;;;;;5.50;2.92;;;5.40;99.90;;;;;;5104662;28;20024;-52
2022/02/14 03:57:42;;;;;;;4.20;2.90;;;5.40;99.90;;;;;;5091051;28;20395;-52
2022/02/14 04:00:10;;;;;;;6.25;3.38;;;5.30;99.90;;;;;;5091010;28;20020;-54
2022/02/14 04:02:36;;;;;;;5.80;3.28;;;5.30;99.90;;;;;;5090258;28;20012;-53
2022/02/14 04:05:02;;;;;;;3.95;2.67;;;5.30;99.90;;;;;;5103128;28;20219;-52
2022/02/14 04:07:28;;;;;;;5.40;3.45;;;5.30;99.90;;;;;;5109751;28;20020;-54
2022/02/14 04:09:55;;;;;;;4.75;2.55;;;5.40;99.90;;;;;;5090794;28;20805;-52
2022/02/14 04:12:20;;;;;;;4.40;3.38;;;5.30;99.90;;;;;;5106649;28;20027;-56
2022/02/14 04:14:46;;;;;;;6.70;3.45;;;5.30;99.90;;;;;;5109882;28;20031;-55
2022/02/14 04:17:12;;;;;;;3.53;2.67;;;5.30;99.90;;;;;;5110576;28;20023;-54
2022/02/14 04:19:37;;;;;;;6.32;3.35;;;5.30;99.90;;;;;;5101795;28;20081;-53
2022/02/14 04:22:03;;;;;;;5.50;3.30;;;5.40;99.90;;;;;;5090269;28;20190;-54
2022/02/14 04:24:29;;;;;;;3.95;2.63;;;5.40;99.90;;;;;;5106561;28;20024;-55
2022/02/14 04:26:54;;;;;;;4.57;3.25;;;5.40;99.90;;;;;;5094512;28;20034;-55
2022/02/14 04:29:20;;;;;;;6.45;3.00;;;5.40;99.90;;;;;;5099506;28;20418;-55
2022/02/14 04:31:46;;;;;;;6.10;2.80;;;5.40;99.90;;;;;;5105659;28;20457;-55
2022/02/14 04:34:12;;;;;;;6.15;3.53;;;5.40;99.90;;;;;;5091100;28;20020;-53
2022/02/14 04:36:38;;;;;;;5.57;3.47;;;5.50;99.90;;;;;;5099507;28;20179;-53
2022/02/14 04:39:04;;;;;;;3.28;2.95;;;5.50;99.90;;;;;;5091175;28;20028;-52
2022/02/14 04:41:29;;;;;;;6.15;3.53;;;5.50;99.90;;;;;;5106633;28;20483;-55
2022/02/14 04:43:55;;;;;;;3.72;3.00;;;5.50;99.90;;;;;;5090630;28;20569;-53
2022/02/14 04:46:21;;;;;;;5.07;2.88;;;5.50;99.90;;;;;;5101740;28;20031;-56
2022/02/14 04:48:46;;;;;;;7.00;2.67;;;5.50;99.90;;;;;;5090084;28;20020;-53
2022/02/14 04:51:12;;;;;;;7.97;3.28;;;5.50;99.90;;;;;;5090256;28;20449;-55
2022/02/14 04:53:38;;;;;;;4.03;3.17;;;5.50;99.90;;;;;;5089661;28;20391;-56
2022/02/14 04:56:04;;;;;;;7.22;3.42;;;5.50;99.90;;;;;;5110141;28;20164;-53
2022/02/14 04:58:30;;;;;;;4.80;3.15;;;5.60;99.90;;;;;;5110244;28;20031;-53
2022/02/14 05:00:55;;;;;;;4.25;2.90;;;5.60;99.90;;;;;;5109298;28;20157;-52
2022/02/14 05:03:21;;;;;;;6.13;3.10;;;5.60;99.90;;;;;;5110229;28;20382;-50
2022/02/14 05:05:47;;;;;;;5.32;3.00;;;5.50;99.90;;;;;;5108784;28;20110;-53
2022/02/14 05:08:12;;;;;;;10.52;3.33;;;5.50;99.90;;;;;;5107066;28;20039;-52
2022/02/14 05:10:38;;;;;;;3.80;2.95;;;5.50;99.90;;;;;;5090239;28;20028;-53
2022/02/14 05:13:04;;;;;;;8.02;3.22;;;5.50;99.90;;;;;;5089906;28;20034;-54
2022/02/14 05:15:29;;;;;;;6.90;2.72;;;5.50;99.90;;;;;;5098527;28;20027;-54
2022/02/14 05:17:55;;;;;;;4.78;3.33;;;5.50;99.90;;;;;;5110142;28;20498;-52
2022/02/14 05:20:20;;;;;;;4.43;3.00;;;5.60;99.90;;;;;;5109727;28;20180;-54
2022/02/14 05:22:46;;;;;;;4.47;2.90;;;5.60;99.90;;;;;;5107859;28;20230;-52
2022/02/14 05:25:12;;;;;;;6.55;3.25;;;5.60;99.90;;;;;;5107756;28;20015;-53
2022/02/14 05:27:37;;;;;;;8.60;3.17;;;5.60;99.90;;;;;;5090729;28;20107;-52
2022/02/14 05:30:05;;;;;;;4.40;2.90;;;5.60;99.90;;;;;;5095037;28;20026;-54
2022/02/14 05:32:30;;;;;;;6.82;3.00;;;5.60;99.90;;;;;;5109462;28;20058;-54
2022/02/14 05:34:56;;;;;;;7.57;3.22;;;5.60;99.90;;;;;;5108532;28;20448;-56
2022/02/14 05:37:23;;;;;;;5.35;3.38;;;5.60;99.90;;;;;;5108028;28;20077;-55
2022/02/14 05:39:49;;;;;;;2.83;2.50;;;5.60;99.90;;;;;;5106829;28;20034;-53
2022/02/14 05:42:15;;;;;;;4.07;2.60;;;5.60;99.90;;;;;;5089421;28;20395;-52
2022/02/14 05:44:41;;;;;;;5.60;3.30;;;5.60;99.90;;;;;;5091189;28;20028;-56
2022/02/14 05:47:07;;;;;;;5.32;3.25;;;5.70;99.90;;;;;;5109890;28;20220;-56
2022/02/14 05:49:33;;;;;;;4.88;2.85;;;5.70;99.90;;;;;;5111358;28;20039;-54
2022/02/14 05:51:58;;;;;;;3.92;3.28;;;5.70;99.90;;;;;;5097619;28;20031;-54
2022/02/14 05:54:24;;;;;;;8.77;3.92;;;5.70;99.90;;;;;;5097670;28;20081;-52
2022/02/14 05:56:50;;;;;;;4.13;3.00;;;5.70;99.90;;;;;;5116302;28;20328;-56
2022/02/14 05:59:15;;;;;;;6.30;3.35;;;5.70;99.90;;;;;;5116068;28;20093;-53
2022/02/14 06:01:41;;;;;;;5.00;3.55;;;5.70;99.90;;;;;;5116115;28;20034;-57
2022/02/14 06:04:07;;;;;;;5.30;3.20;;;5.70;99.90;;;;;;5114632;28;20039;-53
2022/02/14 06:06:32;;;;;;;6.10;2.90;;;5.70;99.90;;;;;;5098141;28;20043;-54
2022/02/14 06:08:58;;;;;;;3.75;2.83;;;5.70;99.90;;;;;;5109015;28;20036;-52
2022/02/14 06:11:23;;;;;;;7.45;3.22;;;5.80;99.90;;;;;;5096261;28;20069;-53
2022/02/14 06:13:49;;;;;;;6.30;3.08;;;5.80;99.90;;;;;;5106850;28;20031;-49
2022/02/14 06:16:15;;;;;;;5.60;3.20;;;5.80;99.90;;;;;;5115979;28;20124;-54
2022/02/14 06:18:40;;;;;;;5.47;3.35;;;5.80;99.90;;;;;;5115861;28;20074;-55
2022/02/14 06:21:06;;;;;;;5.25;2.83;;;5.80;99.90;;;;;;5115607;28;20495;-53
2022/02/14 06:23:32;;;;;;;4.28;2.90;;;5.90;99.90;;;;;;5098592;28;20028;-53
2022/02/14 06:25:57;;;;;;;4.88;3.00;;;5.90;99.90;;;;;;5096234;28;20032;-54
2022/02/14 06:28:23;;;;;;;6.57;3.40;;;5.90;99.90;;;;;;5109546;28;20410;-55
2022/02/14 06:30:49;;;;;;;4.55;2.45;;;5.90;99.90;;;;;;5102776;28;20032;-52
2022/02/14 06:33:14;;;;;;;4.55;3.00;;;5.90;99.90;;;;;;5111633;28;20030;-52
2022/02/14 06:35:40;;;;;;;4.60;2.78;;;5.80;99.90;;;;;;5108986;28;20042;-52
2022/02/14 06:38:07;;;;;;;9.13;3.15;;;5.80;99.90;;;;;;5108337;28;20529;-52
2022/02/14 06:40:32;;;;;;;4.30;3.38;;;5.80;99.90;;;;;;5103982;28;20059;-55
2022/02/14 06:42:58;;;;;;;4.82;3.03;;;5.90;99.90;;;;;;5116067;28;20082;-52
2022/02/14 06:45:24;;;;;;;5.38;2.92;;;5.90;99.90;;;;;;5114557;28;20079;-52
2022/02/14 06:47:49;;;;;;;5.72;3.15;;;5.90;99.90;;;;;;5116253;28;20035;-53
2022/02/14 06:50:17;;;;;;;10.73;3.00;;;5.90;99.90;;;;;;5115603;28;20417;-53
2022/02/14 06:52:43;;;;;;;6.85;2.88;;;5.90;99.90;;;;;;5115893;28;20047;-52
2022/02/14 06:55:09;;;;;;;4.32;2.95;;;5.90;99.90;;;;;;5115651;28;20031;-52
2022/02/14 06:57:36;;;;;;;5.05;3.42;;;5.90;99.90;;;;;;5115954;28;20504;-54
2022/02/14 07:00:08;;;;;;;9.43;3.53;;;6.00;99.90;;;;;;5111275;28;20024;-52
2022/02/14 07:02:34;;;;;;;6.40;2.85;;;6.00;99.90;;;;;;5092321;28;20360;-55
2022/02/14 07:05:00;;;;;;;5.65;2.97;;;6.00;99.90;;;;;;5111308;28;20036;-52
2022/02/14 07:07:26;;;;;;;7.18;3.10;;;5.90;99.90;;;;;;5112040;28;20030;-54
2022/02/14 07:09:51;;;;;;;5.28;3.00;;;6.00;99.90;;;;;;5094528;28;20529;-53
2022/02/14 07:12:17;;;;;;;4.13;2.60;;;6.10;99.90;;;;;;5110423;28;20406;-52
2022/02/14 07:14:42;;;;;;;5.05;2.88;;;6.10;99.90;;;;;;5112463;28;20551;-53
2022/02/14 07:17:08;;;;;;;6.32;3.10;;;6.10;99.90;;;;;;5112180;28;20024;-53
2022/02/14 07:19:34;;;;;;;4.82;2.78;;;6.20;99.90;;;;;;5103735;28;20028;-53
2022/02/14 07:21:59;;;;;;;3.35;3.05;;;6.20;99.90;;;;;;5092579;28;20070;-54
2022/02/14 07:24:25;;;;;;;4.05;2.67;;;6.20;99.90;;;;;;5092085;28;20028;-53
2022/02/14 07:26:50;;;;;;;3.35;2.47;;;6.30;99.90;;;;;;5074474;28;20032;-53
2022/02/14 07:29:17;;;;;;;5.50;2.33;;;6.30;99.90;;;;;;5092521;28;20032;-52
2022/02/14 07:31:42;;;;;;;4.88;2.95;;;6.30;99.90;;;;;;5100766;28;20027;-51
2022/02/14 07:34:08;;;;;;;5.32;2.88;;;6.40;99.90;;;;;;5091675;28;20034;-52
2022/02/14 07:36:34;;;;;;;9.48;2.80;;;6.50;99.90;;;;;;5097264;28;20043;-55
2022/02/14 07:38:59;;;;;;;4.85;2.67;;;6.50;99.90;;;;;;5109970;28;20032;-52
2022/02/14 07:41:25;;;;;;;3.53;2.63;;;6.50;99.90;;;;;;5107436;28;20027;-53
2022/02/14 07:43:50;;;;;;;7.75;3.40;;;6.50;99.90;;;;;;5110563;28;20467;-53
2022/02/14 07:46:18;;;;;;;7.10;3.20;;;6.70;99.90;;;;;;5111965;28;20051;-52
2022/02/14 07:48:46;;;;;;;5.65;3.03;;;6.80;99.90;;;;;;5109517;28;20122;-51
2022/02/14 07:51:16;;;;;;;5.90;2.85;;;6.80;99.90;;;;;;5111702;28;20030;-54
2022/02/14 07:53:42;;;;;;;7.35;3.40;;;6.90;99.90;;;;;;5094343;28;20458;-56
2022/02/14 07:56:12;;;;;;;4.43;2.70;;;7.00;99.90;;;;;;5073032;28;20046;-52
2022/02/14 07:58:40;;;;;;;4.30;2.40;;;7.00;99.90;;;;;;5091202;28;20044;-52
2022/02/14 08:01:06;;;;;;;8.18;2.55;;;7.10;99.90;;;;;;5091757;28;20028;-52
2022/02/14 08:03:31;;;;;;;4.97;2.53;;;7.20;99.90;;;;;;5102993;28;20444;-52
2022/02/14 08:05:57;;;;;;;6.65;2.58;;;7.30;99.90;;;;;;5109610;28;20023;-54
2022/02/14 08:08:23;;;;;;;5.25;2.53;;;7.40;99.90;;;;;;5095752;28;20072;-54
2022/02/14 08:10:49;;;;;;;3.55;2.40;;;7.50;99.90;;;;;;5090977;28;20082;-51
2022/02/14 08:13:15;;;;;;;6.68;2.67;;;7.50;99.90;;;;;;5099184;28;20463;-51
2022/02/14 08:15:40;;;;;;;4.07;2.25;;;7.70;99.90;;;;;;5107136;28;20101;-53
2022/02/14 08:18:09;;;;;;;4.82;2.22;;;7.80;99.90;;;;;;5095486;28;20111;-54
2022/02/14 08:20:37;;;;;;;4.28;2.30;;;7.80;99.90;;;;;;5104633;28;20031;-56
2022/02/14 08:23:04;;;;;;;4.80;2.72;;;7.90;99.90;;;;;;5098569;28;20062;-56
2022/02/14 08:25:32;;;;;;;12.23;3.10;;;8.00;99.90;;;;;;5091071;28;20020;-54
2022/02/14 08:27:59;;;;;;;5.43;2.50;;;8.00;99.90;;;;;;5106618;28;20089;-52
2022/02/14 08:30:25;;;;;;;3.85;2.53;;;8.10;99.90;;;;;;5111217;28;20071;-52
2022/02/14 08:32:50;;;;;;;4.88;2.20;;;8.10;99.90;;;;;;5101013;28;20097;-55
2022/02/14 08:35:17;;;;;;;2.97;2.25;;;8.20;99.90;;;;;;5106046;28;20032;-54
2022/02/14 08:37:44;;;;;;;5.68;2.15;;;8.30;99.90;;;;;;5090566;28;20028;-50
2022/02/14 08:40:10;;;;;;;5.45;2.20;;;8.30;99.90;;;;;;5091504;28;20054;-55
2022/02/14 08:42:36;;;;;;;4.43;2.15;;;8.40;99.90;;;;;;5090522;28;20032;-53
2022/02/14 08:45:03;;;;;;;3.65;2.05;;;8.50;99.90;;;;;;5091336;28;20044;-53
2022/02/14 08:47:28;;;;;;;8.43;2.13;;;8.50;99.90;;;;;;5102044;28;20063;-53
2022/02/14 08:49:54;;;;;;;3.30;2.63;;;8.60;99.90;;;;;;5101601;28;20086;-51
2022/02/14 08:52:20;;;;;;;6.18;2.30;;;8.60;99.90;;;;;;5106869;28;20480;-52
2022/02/14 08:54:46;;;;;;;6.30;2.50;;;8.70;99.90;;;;;;5110385;28;20106;-53
2022/02/14 08:57:12;;;;;;;6.05;3.08;;;8.70;99.90;;;;;;5110755;28;20126;-55
2022/02/14 08:59:37;;;;;;;2.15;1.85;;;8.80;99.90;;;;;;5110645;28;20445;-54
2022/02/14 09:02:03;;;;;;;3.42;2.05;;;8.80;99.90;;;;;;5110283;28;20084;-54
2022/02/14 09:04:29;;;;;;;5.90;2.30;;;8.80;99.90;;;;;;5110651;28;20041;-55
2022/02/14 09:06:55;;;;;;;2.92;2.17;;;8.80;99.90;;;;;;5110716;28;20107;-54
2022/02/14 09:09:20;;;;;;;4.50;1.80;;;8.90;99.90;;;;;;5110189;28;20028;-55
2022/02/14 09:11:47;;;;;;;3.47;2.60;;;8.90;99.90;;;;;;5110342;28;20059;-54
2022/02/14 09:14:13;;;;;;;6.25;2.45;;;9.00;99.90;;;;;;5109985;28;20055;-55
2022/02/14 09:16:38;;;;;;;3.53;2.33;;;9.00;99.90;;;;;;5110492;28;20471;-52
2022/02/14 09:19:04;;;;;;;3.35;2.30;;;9.00;99.90;;;;;;5110458;28;20098;-54
2022/02/14 09:21:30;;;;;;;3.88;2.33;;;9.10;99.90;;;;;;5110270;28;20463;-52
2022/02/14 09:23:56;;;;;;;4.07;2.22;;;9.20;99.90;;;;;;5116940;22;20044;-56
2022/02/14 09:26:23;;;;;;;3.58;2.10;;;9.20;99.90;;;;;;5069279;28;20043;-58
2022/02/14 09:28:48;;;;;;;2.88;2.35;;;9.20;99.90;;;;;;5069552;28;20380;-52
2022/02/14 09:31:14;;;;;;;6.07;2.50;;;9.30;99.90;;;;;;5069349;28;20020;-55
2022/02/14 09:33:40;;;;;;;4.97;1.92;;;9.40;99.90;;;;;;5081672;28;20025;-59
2022/02/14 09:36:05;;;;;;;4.57;2.10;;;9.50;99.90;;;;;;5098628;28;20055;-57
2022/02/14 09:38:31;;;;;;;3.63;2.00;;;9.60;99.90;;;;;;5109103;28;20038;-58
2022/02/14 09:40:59;;;;;;;4.43;2.10;;;9.70;99.90;;;;;;5101357;28;20028;-53
2022/02/14 09:43:25;;;;;;;4.15;2.03;;;9.80;99.90;;;;;;5109125;28;20023;-59
2022/02/14 09:45:51;;;;;;;10.38;2.60;;;9.80;99.90;;;;;;5109705;28;20110;-57
2022/02/14 09:48:20;;;;;;;2.15;1.80;;;9.90;99.90;;;;;;5110077;28;20054;-55
2022/02/14 09:50:46;;;;;;;4.10;2.33;;;10.00;99.90;;;;;;5107052;28;20555;-56
2022/02/14 09:53:15;;;;;;;5.97;2.20;;;10.00;99.90;;;;;;5108511;28;20031;-58
2022/02/14 09:55:43;;;;;;;3.75;2.17;;;10.20;99.90;;;;;;5108279;28;20110;-56
2022/02/14 09:58:09;;;;;;;4.82;2.10;;;10.40;99.90;;;;;;5108319;28;20043;-55
2022/02/14 10:00:35;;;;;;;4.57;2.00;;;10.50;99.90;;;;;;5109098;28;20023;-58
2022/02/14 10:03:14;;;;;;;2.92;2.13;;;10.60;99.90;;;;;;5108917;28;20039;-57
2022/02/14 10:05:43;;;;;;;5.07;2.28;;;10.60;99.90;;;;;;5106552;28;20016;-57
2022/02/14 10:08:09;;;;;;;3.28;2.17;;;10.70;99.90;;;;;;5108678;28;20665;-57
2022/02/14 10:10:36;;;;;;;3.80;1.85;;;10.80;99.90;;;;;;5107834;28;20019;-56
2022/02/14 10:13:02;;;;;;;3.70;1.67;;;11.00;99.90;;;;;;5108413;28;20019;-56
2022/02/14 10:15:28;;;;;;;5.28;2.65;;;11.10;99.90;;;;;;5107935;28;20027;-57
2022/02/14 10:17:59;;;;;;;5.55;2.00;;;11.20;99.90;;;;;;5108646;28;20020;-59
2022/02/14 10:20:26;;;;;;;4.05;2.10;;;11.30;99.90;;;;;;5107653;28;20020;-55
2022/02/14 10:23:03;;;;;;;2.55;2.00;;;11.40;99.90;;;;;;5105591;28;20036;-56
2022/02/14 10:25:34;;;;;;;3.33;2.20;;;11.40;99.90;;;;;;5084650;28;20372;-59
2022/02/14 10:28:14;;;;;;;3.83;2.38;;;11.40;99.90;;;;;;5089772;28;20012;-56
2022/02/14 10:31:07;;;;;;;2.20;1.50;;;11.50;99.90;;;;;;5077556;28;20024;-57
2022/02/14 10:33:53;;;;;;;5.00;1.90;;;11.50;99.90;;;;;;5104278;28;20059;-56
2022/02/14 10:36:32;;;;;;;4.90;2.28;;;11.60;99.90;;;;;;5102233;28;20027;-56
2022/02/14 10:39:08;;;;;;;3.65;2.22;;;11.60;99.90;;;;;;5112330;28;20030;-55
2022/02/14 10:41:34;;;;;;;4.10;2.03;;;11.60;99.90;;;;;;5112890;28;20024;-58
2022/02/14 10:44:14;;;;;;;1.88;1.67;;;11.60;99.90;;;;;;5110907;28;20034;-58
2022/02/14 10:46:41;;;;;;;3.40;2.00;;;11.70;99.90;;;;;;5113267;28;20024;-54
2022/02/14 10:49:08;;;;;;;4.30;1.80;;;11.70;99.90;;;;;;5106867;28;20063;-59
2022/02/14 10:51:34;;;;;;;2.55;2.10;;;11.70;99.90;;;;;;5092797;28;20048;-54
2022/02/14 10:54:02;;;;;;;3.05;1.88;;;11.70;99.90;;;;;;5093297;28;20039;-57
2022/02/14 10:56:37;;;;;;;4.35;2.00;;;11.80;99.90;;;;;;5074326;28;20077;-59
2022/02/14 10:59:11;;;;;;;2.60;2.35;;;11.80;99.90;;;;;;5097389;28;20019;-57
2022/02/14 11:01:38;;;;;;;4.45;2.33;;;11.80;99.90;;;;;;5112930;28;20095;-59
2022/02/14 11:04:04;;;;;;;4.13;1.65;;;11.80;99.90;;;;;;5092562;28;20016;-58
2022/02/14 11:06:34;;;;;;;4.22;2.28;;;11.80;99.90;;;;;;5110904;28;20152;-54
2022/02/14 11:09:01;;;;;;;2.83;2.00;;;11.90;99.90;;;;;;5092301;28;20283;-58
2022/02/14 11:11:28;;;;;;;3.72;2.05;;;12.00;99.90;;;;;;5093117;28;20027;-55
2022/02/14 11:13:56;;;;;;;4.95;2.28;;;12.00;99.90;;;;;;5092061;28;20020;-56
2022/02/14 11:16:22;;;;;;;4.10;2.38;;;12.00;99.90;;;;;;5096832;28;20076;-59
2022/02/14 11:18:50;;;;;;;1.92;1.80;;;12.00;99.90;;;;;;5111537;28;20026;-59
2022/02/14 11:21:16;;;;;;;3.40;2.45;;;12.10;99.90;;;;;;5110936;28;20028;-55
2022/02/14 11:23:56;;;;;;;3.25;1.80;;;12.10;99.90;;;;;;5108149;28;20074;-56
2022/02/14 11:26:45;;;;;;;3.55;2.05;;;12.10;99.90;;;;;;5090766;28;20399;-57
2022/02/14 11:29:19;;;;;;;2.53;1.95;;;12.10;99.90;;;;;;5092202;28;20066;-58
2022/02/14 11:31:45;;;;;;;3.15;1.70;;;11.90;99.90;;;;;;5092195;28;20024;-56
2022/02/14 11:34:10;;;;;;;4.63;1.80;;;11.90;99.90;;;;;;5092458;28;20036;-58
2022/02/14 11:36:37;;;;;;;2.10;1.92;;;11.90;99.90;;;;;;5091275;28;20035;-57
2022/02/14 11:39:10;;;;;;;2.97;2.13;;;11.80;99.90;;;;;;5091669;28;20040;-59
2022/02/14 11:41:37;;;;;;;4.72;2.40;;;11.80;99.90;;;;;;5073123;28;20024;-58
2022/02/14 11:44:17;;;;;;;2.72;1.73;;;11.80;99.90;;;;;;5092440;28;20028;-58
2022/02/14 11:47:04;;;;;;;2.83;1.50;;;11.90;99.90;;;;;;5091811;28;20554;-57
2022/02/14 11:49:39;;;;;;;8.02;2.13;;;11.90;99.90;;;;;;5077353;28;20059;-57
2022/02/14 11:52:28;;;;;;;3.47;1.80;;;11.90;99.90;;;;;;5095332;28;20039;-57
2022/02/14 11:54:54;;;;;;;2.70;1.70;;;11.90;99.90;;;;;;5093835;28;20028;-55
2022/02/14 11:57:35;;;;;;;3.13;1.88;;;11.90;99.90;;;;;;5093813;28;20043;-57
2022/02/14 12:00:17;;;;;;;4.53;2.15;;;12.00;99.90;;;;;;5077842;28;20028;-58
2022/02/14 12:03:09;;;;;;;3.47;2.00;;;12.10;99.90;;;;;;5087480;28;20035;-56
2022/02/14 12:05:50;;;;;;;2.65;2.05;;;12.10;99.90;;;;;;5090865;28;20480;-56
2022/02/14 12:08:16;;;;;;;2.75;2.05;;;12.10;99.90;;;;;;5090816;28;20024;-57
2022/02/14 12:10:56;;;;;;;3.20;2.10;;;12.00;99.90;;;;;;5079787;28;20399;-57
2022/02/14 12:13:34;;;;;;;2.85;1.90;;;12.00;99.90;;;;;;5110629;28;20024;-59
2022/02/14 12:21:31;;;;;;;3.42;1.70;;;12.10;99.90;;;;;;5111461;28;20072;-59
2022/02/14 12:23:58;;;;;;;3.88;1.80;;;12.20;99.90;;;;;;5110425;28;20054;-60
2022/02/14 12:26:29;;;;;;;1.83;1.58;;;12.20;99.90;;;;;;5110966;28;20103;-58
2022/02/14 12:31:50;;;;;;;2.00;1.52;;;12.20;99.90;;;;;;5111414;28;20035;-54
2022/02/14 12:34:30;;;;;;;2.63;1.70;;;12.20;99.90;;;;;;5110494;28;20035;-57
2022/02/14 12:37:07;;;;;;;2.17;1.92;;;12.20;99.90;;;;;;5110289;28;20019;-54
2022/02/14 12:39:36;;;;;;;3.80;1.80;;;12.10;99.90;;;;;;5098547;28;20023;-56
2022/02/14 12:42:19;;;;;;;1.88;1.65;;;12.10;99.90;;;;;;5107780;28;20020;-55
2022/02/14 12:44:45;;;;;;;2.50;1.73;;;12.00;99.90;;;;;;5110784;28;20022;-59
2022/02/14 12:47:12;;;;;;;5.15;2.03;;;12.00;99.90;;;;;;5110563;28;20039;-58
2022/02/14 12:49:40;;;;;;;2.10;1.65;;;11.90;99.90;;;;;;5103954;28;20133;-58
2022/02/14 12:52:11;;;;;;;4.35;1.65;;;11.90;99.90;;;;;;5108715;28;20030;-55
2022/02/14 12:54:36;;;;;;;2.33;1.77;;;11.90;99.90;;;;;;5109866;28;20051;-54
2022/02/14 12:57:02;;;;;;;2.47;2.05;;;11.90;99.90;;;;;;5110595;28;20112;-54
2022/02/14 12:59:33;;;;;;;2.30;1.42;;;11.90;99.90;;;;;;5096947;28;20479;-56
2022/02/14 13:01:59;;;;;;;4.35;2.10;;;11.90;99.90;;;;;;5090221;28;20012;-56
2022/02/14 13:04:29;;;;;;;4.30;1.80;;;11.90;99.90;;;;;;5079225;28;20391;-59
2022/02/14 13:06:59;;;;;;;4.72;1.55;;;11.90;99.90;;;;;;5109993;28;20024;-57
2022/02/14 13:09:33;;;;;;;2.45;1.92;;;11.90;99.90;;;;;;5086865;28;20031;-57